sensor_id;sensor_type;location;lat;lon;timestamp;P1;durP1;ratioP1;P2;durP2;ratioP2
67248;SDS011;63247;54.300;18.592;2023-07-31T00:01:53;5.55;;;2.00;;
67248;SDS011;63247;54.300;18.592;2023-07-31T00:04:19;7.23;;;1.90;;
67248;SDS011;63247;54.300;18.592;2023-07-31T00:06:44;4.10;;;1.80;;
67248;SDS011;63247;54.300;18.592;2023-07-31T00:09:10;5.73;;;1.90;;
67248;SDS011;63247;54.300;18.592;2023-07-31T00:11:35;4.85;;;1.92;;
67248;SDS011;63247;54.300;18.592;2023-07-31T00:14:01;4.17;;;2.07;;
67248;SDS011;63247;54.300;18.592;2023-07-31T00:16:26;3.78;;;2.08;;
67248;SDS011;63247;54.300;18.592;2023-07-31T00:18:52;5.30;;;2.03;;
67248;SDS011;63247;54.300;18.592;2023-07-31T00:21:17;5.43;;;2.27;;
67248;SDS011;63247;54.300;18.592;2023-07-31T00:23:43;6.57;;;2.70;;
67248;SDS011;63247;54.300;18.592;2023-07-31T00:26:08;7.55;;;2.40;;
67248;SDS011;63247;54.300;18.592;2023-07-31T00:28:34;5.23;;;2.60;;
67248;SDS011;63247;54.300;18.592;2023-07-31T00:30:59;6.67;;;2.47;;
67248;SDS011;63247;54.300;18.592;2023-07-31T00:33:25;5.30;;;2.23;;
67248;SDS011;63247;54.300;18.592;2023-07-31T00:35:50;6.55;;;2.50;;
67248;SDS011;63247;54.300;18.592;2023-07-31T00:38:15;5.70;;;2.50;;
67248;SDS011;63247;54.300;18.592;2023-07-31T00:40:41;5.60;;;2.40;;
67248;SDS011;63247;54.300;18.592;2023-07-31T00:43:06;5.70;;;2.60;;
67248;SDS011;63247;54.300;18.592;2023-07-31T00:45:32;7.47;;;2.57;;
67248;SDS011;63247;54.300;18.592;2023-07-31T00:47:58;5.25;;;2.70;;
67248;SDS011;63247;54.300;18.592;2023-07-31T00:50:24;5.32;;;2.80;;
67248;SDS011;63247;54.300;18.592;2023-07-31T00:52:50;9.15;;;3.20;;
67248;SDS011;63247;54.300;18.592;2023-07-31T00:55:15;6.57;;;3.10;;
67248;SDS011;63247;54.300;18.592;2023-07-31T00:57:42;7.47;;;3.08;;
67248;SDS011;63247;54.300;18.592;2023-07-31T01:00:08;5.75;;;2.80;;
67248;SDS011;63247;54.300;18.592;2023-07-31T01:02:34;6.75;;;3.13;;
67248;SDS011;63247;54.300;18.592;2023-07-31T01:05:01;8.38;;;3.33;;
67248;SDS011;63247;54.300;18.592;2023-07-31T01:07:33;5.10;;;3.00;;
67248;SDS011;63247;54.300;18.592;2023-07-31T01:12:38;6.47;;;3.10;;
67248;SDS011;63247;54.300;18.592;2023-07-31T01:15:05;6.13;;;3.10;;
67248;SDS011;63247;54.300;18.592;2023-07-31T01:17:39;6.03;;;3.25;;
67248;SDS011;63247;54.300;18.592;2023-07-31T01:20:16;7.70;;;3.45;;
67248;SDS011;63247;54.300;18.592;2023-07-31T01:28:14;9.73;;;4.55;;
67248;SDS011;63247;54.300;18.592;2023-07-31T01:30:50;8.82;;;4.05;;
67248;SDS011;63247;54.300;18.592;2023-07-31T01:33:16;8.35;;;4.20;;
67248;SDS011;63247;54.300;18.592;2023-07-31T01:35:43;8.67;;;4.30;;
67248;SDS011;63247;54.300;18.592;2023-07-31T01:38:09;7.97;;;4.00;;
67248;SDS011;63247;54.300;18.592;2023-07-31T01:40:35;8.02;;;3.80;;
67248;SDS011;63247;54.300;18.592;2023-07-31T01:43:01;8.85;;;3.92;;
67248;SDS011;63247;54.300;18.592;2023-07-31T01:45:26;8.37;;;3.40;;
67248;SDS011;63247;54.300;18.592;2023-07-31T01:47:52;5.60;;;3.03;;
67248;SDS011;63247;54.300;18.592;2023-07-31T01:50:17;8.20;;;2.92;;
67248;SDS011;63247;54.300;18.592;2023-07-31T01:52:43;6.57;;;3.20;;
67248;SDS011;63247;54.300;18.592;2023-07-31T01:55:08;5.23;;;2.90;;
67248;SDS011;63247;54.300;18.592;2023-07-31T01:57:33;8.10;;;2.80;;
67248;SDS011;63247;54.300;18.592;2023-07-31T02:00:01;6.63;;;2.88;;
67248;SDS011;63247;54.300;18.592;2023-07-31T02:02:27;5.27;;;2.47;;
67248;SDS011;63247;54.300;18.592;2023-07-31T02:04:52;4.53;;;2.55;;
67248;SDS011;63247;54.300;18.592;2023-07-31T02:07:18;5.67;;;2.60;;
67248;SDS011;63247;54.300;18.592;2023-07-31T02:09:43;3.93;;;2.33;;
67248;SDS011;63247;54.300;18.592;2023-07-31T02:12:08;6.23;;;2.90;;
67248;SDS011;63247;54.300;18.592;2023-07-31T02:14:34;5.75;;;2.78;;
67248;SDS011;63247;54.300;18.592;2023-07-31T02:17:00;4.68;;;2.42;;
67248;SDS011;63247;54.300;18.592;2023-07-31T02:19:25;5.28;;;2.70;;
67248;SDS011;63247;54.300;18.592;2023-07-31T02:21:51;6.25;;;2.58;;
67248;SDS011;63247;54.300;18.592;2023-07-31T02:24:16;5.13;;;2.40;;
67248;SDS011;63247;54.300;18.592;2023-07-31T02:26:42;5.90;;;2.40;;
67248;SDS011;63247;54.300;18.592;2023-07-31T02:29:08;4.60;;;2.50;;
67248;SDS011;63247;54.300;18.592;2023-07-31T02:31:33;5.38;;;2.70;;
67248;SDS011;63247;54.300;18.592;2023-07-31T02:33:59;7.30;;;2.70;;
67248;SDS011;63247;54.300;18.592;2023-07-31T02:36:24;5.00;;;2.65;;
67248;SDS011;63247;54.300;18.592;2023-07-31T02:38:49;7.50;;;2.90;;
67248;SDS011;63247;54.300;18.592;2023-07-31T02:41:15;7.30;;;2.50;;
67248;SDS011;63247;54.300;18.592;2023-07-31T02:43:40;4.80;;;2.60;;
67248;SDS011;63247;54.300;18.592;2023-07-31T02:46:06;4.90;;;2.40;;
67248;SDS011;63247;54.300;18.592;2023-07-31T02:48:31;5.55;;;2.63;;
67248;SDS011;63247;54.300;18.592;2023-07-31T02:50:57;6.07;;;2.60;;
67248;SDS011;63247;54.300;18.592;2023-07-31T02:53:22;5.33;;;2.70;;
67248;SDS011;63247;54.300;18.592;2023-07-31T02:55:48;5.28;;;2.90;;
67248;SDS011;63247;54.300;18.592;2023-07-31T02:58:13;5.17;;;2.70;;
67248;SDS011;63247;54.300;18.592;2023-07-31T03:00:45;7.70;;;3.00;;
67248;SDS011;63247;54.300;18.592;2023-07-31T03:03:10;6.93;;;2.70;;
67248;SDS011;63247;54.300;18.592;2023-07-31T03:05:36;7.67;;;2.93;;
67248;SDS011;63247;54.300;18.592;2023-07-31T03:08:02;7.53;;;2.85;;
67248;SDS011;63247;54.300;18.592;2023-07-31T03:10:28;6.05;;;3.00;;
67248;SDS011;63247;54.300;18.592;2023-07-31T03:12:54;8.93;;;3.00;;
67248;SDS011;63247;54.300;18.592;2023-07-31T03:15:19;7.67;;;3.07;;
67248;SDS011;63247;54.300;18.592;2023-07-31T03:17:45;7.10;;;3.50;;
67248;SDS011;63247;54.300;18.592;2023-07-31T03:20:10;8.27;;;3.30;;
67248;SDS011;63247;54.300;18.592;2023-07-31T03:22:36;9.97;;;3.77;;
67248;SDS011;63247;54.300;18.592;2023-07-31T03:25:02;7.03;;;3.58;;
67248;SDS011;63247;54.300;18.592;2023-07-31T03:27:28;11.20;;;3.97;;
67248;SDS011;63247;54.300;18.592;2023-07-31T03:29:53;7.03;;;3.15;;
67248;SDS011;63247;54.300;18.592;2023-07-31T03:32:18;8.90;;;3.37;;
67248;SDS011;63247;54.300;18.592;2023-07-31T03:34:44;7.30;;;3.20;;
67248;SDS011;63247;54.300;18.592;2023-07-31T03:37:09;10.37;;;3.33;;
67248;SDS011;63247;54.300;18.592;2023-07-31T03:39:35;7.40;;;3.45;;
67248;SDS011;63247;54.300;18.592;2023-07-31T03:42:00;12.43;;;3.70;;
67248;SDS011;63247;54.300;18.592;2023-07-31T03:44:26;7.97;;;3.30;;
67248;SDS011;63247;54.300;18.592;2023-07-31T03:46:51;8.87;;;2.73;;
67248;SDS011;63247;54.300;18.592;2023-07-31T03:49:16;7.77;;;2.77;;
67248;SDS011;63247;54.300;18.592;2023-07-31T03:51:42;9.50;;;3.00;;
67248;SDS011;63247;54.300;18.592;2023-07-31T03:54:07;8.47;;;2.73;;
67248;SDS011;63247;54.300;18.592;2023-07-31T03:56:33;8.47;;;2.70;;
67248;SDS011;63247;54.300;18.592;2023-07-31T03:58:59;6.88;;;2.88;;
67248;SDS011;63247;54.300;18.592;2023-07-31T04:01:25;7.03;;;2.40;;
67248;SDS011;63247;54.300;18.592;2023-07-31T04:03:51;8.73;;;2.85;;
67248;SDS011;63247;54.300;18.592;2023-07-31T04:06:17;6.87;;;2.80;;
67248;SDS011;63247;54.300;18.592;2023-07-31T04:08:43;7.38;;;2.30;;
67248;SDS011;63247;54.300;18.592;2023-07-31T04:11:10;8.35;;;2.53;;
67248;SDS011;63247;54.300;18.592;2023-07-31T04:13:36;7.38;;;2.22;;
67248;SDS011;63247;54.300;18.592;2023-07-31T04:16:01;6.53;;;2.30;;
67248;SDS011;63247;54.300;18.592;2023-07-31T04:18:27;6.90;;;2.40;;
67248;SDS011;63247;54.300;18.592;2023-07-31T04:20:52;6.15;;;2.50;;
67248;SDS011;63247;54.300;18.592;2023-07-31T04:23:18;7.83;;;2.10;;
67248;SDS011;63247;54.300;18.592;2023-07-31T04:25:43;6.20;;;2.30;;
67248;SDS011;63247;54.300;18.592;2023-07-31T04:28:09;8.02;;;2.40;;
67248;SDS011;63247;54.300;18.592;2023-07-31T04:30:34;7.77;;;2.20;;
67248;SDS011;63247;54.300;18.592;2023-07-31T04:33:01;6.90;;;2.40;;
67248;SDS011;63247;54.300;18.592;2023-07-31T04:35:27;6.10;;;2.20;;
67248;SDS011;63247;54.300;18.592;2023-07-31T04:37:52;5.27;;;2.00;;
67248;SDS011;63247;54.300;18.592;2023-07-31T04:40:17;6.57;;;2.20;;
67248;SDS011;63247;54.300;18.592;2023-07-31T04:42:43;7.50;;;2.25;;
67248;SDS011;63247;54.300;18.592;2023-07-31T04:45:08;6.93;;;2.17;;
67248;SDS011;63247;54.300;18.592;2023-07-31T04:47:34;5.55;;;1.95;;
67248;SDS011;63247;54.300;18.592;2023-07-31T04:50:00;7.75;;;2.30;;
67248;SDS011;63247;54.300;18.592;2023-07-31T04:52:25;6.63;;;2.47;;
67248;SDS011;63247;54.300;18.592;2023-07-31T04:54:50;6.50;;;2.20;;
67248;SDS011;63247;54.300;18.592;2023-07-31T04:57:16;5.50;;;2.13;;
67248;SDS011;63247;54.300;18.592;2023-07-31T04:59:41;5.00;;;2.00;;
67248;SDS011;63247;54.300;18.592;2023-07-31T05:02:07;6.47;;;1.90;;
67248;SDS011;63247;54.300;18.592;2023-07-31T05:04:33;5.88;;;2.05;;
67248;SDS011;63247;54.300;18.592;2023-07-31T05:06:59;7.33;;;2.37;;
67248;SDS011;63247;54.300;18.592;2023-07-31T05:09:24;5.17;;;2.23;;
67248;SDS011;63247;54.300;18.592;2023-07-31T05:11:50;8.68;;;2.33;;
67248;SDS011;63247;54.300;18.592;2023-07-31T05:14:15;6.47;;;2.00;;
67248;SDS011;63247;54.300;18.592;2023-07-31T05:16:41;7.33;;;2.43;;
67248;SDS011;63247;54.300;18.592;2023-07-31T05:19:06;7.00;;;2.30;;
67248;SDS011;63247;54.300;18.592;2023-07-31T05:21:32;8.83;;;2.30;;
67248;SDS011;63247;54.300;18.592;2023-07-31T05:23:57;5.93;;;2.30;;
67248;SDS011;63247;54.300;18.592;2023-07-31T05:26:23;6.60;;;2.00;;
67248;SDS011;63247;54.300;18.592;2023-07-31T05:28:48;7.35;;;2.30;;
67248;SDS011;63247;54.300;18.592;2023-07-31T05:31:14;7.20;;;2.33;;
67248;SDS011;63247;54.300;18.592;2023-07-31T05:33:39;6.20;;;1.90;;
67248;SDS011;63247;54.300;18.592;2023-07-31T05:36:05;5.97;;;2.27;;
67248;SDS011;63247;54.300;18.592;2023-07-31T05:38:30;7.93;;;2.30;;
67248;SDS011;63247;54.300;18.592;2023-07-31T05:40:55;8.10;;;2.30;;
67248;SDS011;63247;54.300;18.592;2023-07-31T05:43:21;5.50;;;2.03;;
67248;SDS011;63247;54.300;18.592;2023-07-31T05:45:46;5.60;;;2.03;;
67248;SDS011;63247;54.300;18.592;2023-07-31T05:48:12;4.95;;;2.17;;
67248;SDS011;63247;54.300;18.592;2023-07-31T05:50:37;7.67;;;2.20;;
67248;SDS011;63247;54.300;18.592;2023-07-31T05:53:04;5.28;;;2.47;;
67248;SDS011;63247;54.300;18.592;2023-07-31T05:55:30;7.23;;;2.27;;
67248;SDS011;63247;54.300;18.592;2023-07-31T05:57:56;4.70;;;2.13;;
67248;SDS011;63247;54.300;18.592;2023-07-31T06:00:24;8.77;;;2.63;;
67248;SDS011;63247;54.300;18.592;2023-07-31T06:02:50;5.70;;;2.30;;
67248;SDS011;63247;54.300;18.592;2023-07-31T06:05:16;5.15;;;2.10;;
67248;SDS011;63247;54.300;18.592;2023-07-31T06:07:41;6.70;;;2.00;;
67248;SDS011;63247;54.300;18.592;2023-07-31T06:10:08;7.78;;;1.92;;
67248;SDS011;63247;54.300;18.592;2023-07-31T06:12:34;5.50;;;2.03;;
67248;SDS011;63247;54.300;18.592;2023-07-31T06:15:01;5.00;;;2.00;;
67248;SDS011;63247;54.300;18.592;2023-07-31T06:17:27;8.25;;;2.15;;
67248;SDS011;63247;54.300;18.592;2023-07-31T06:19:54;4.40;;;1.80;;
67248;SDS011;63247;54.300;18.592;2023-07-31T06:22:19;7.50;;;1.98;;
67248;SDS011;63247;54.300;18.592;2023-07-31T06:24:46;7.67;;;1.90;;
67248;SDS011;63247;54.300;18.592;2023-07-31T06:27:11;7.15;;;2.22;;
67248;SDS011;63247;54.300;18.592;2023-07-31T06:29:37;6.70;;;2.00;;
67248;SDS011;63247;54.300;18.592;2023-07-31T06:32:02;7.38;;;1.98;;
67248;SDS011;63247;54.300;18.592;2023-07-31T06:34:30;7.20;;;2.05;;
67248;SDS011;63247;54.300;18.592;2023-07-31T06:36:56;5.77;;;2.10;;
67248;SDS011;63247;54.300;18.592;2023-07-31T06:39:21;8.47;;;2.50;;
67248;SDS011;63247;54.300;18.592;2023-07-31T06:41:47;9.48;;;2.40;;
67248;SDS011;63247;54.300;18.592;2023-07-31T06:44:13;6.73;;;2.20;;
67248;SDS011;63247;54.300;18.592;2023-07-31T06:46:38;7.27;;;2.03;;
67248;SDS011;63247;54.300;18.592;2023-07-31T06:49:07;11.20;;;2.22;;
67248;SDS011;63247;54.300;18.592;2023-07-31T06:51:32;5.80;;;2.20;;
67248;SDS011;63247;54.300;18.592;2023-07-31T06:53:58;35.13;;;4.85;;
67248;SDS011;63247;54.300;18.592;2023-07-31T06:56:23;6.77;;;2.30;;
67248;SDS011;63247;54.300;18.592;2023-07-31T06:58:49;7.77;;;2.43;;
67248;SDS011;63247;54.300;18.592;2023-07-31T07:01:14;7.20;;;2.63;;
67248;SDS011;63247;54.300;18.592;2023-07-31T07:03:40;7.20;;;2.57;;
67248;SDS011;63247;54.300;18.592;2023-07-31T07:06:05;5.70;;;2.43;;
67248;SDS011;63247;54.300;18.592;2023-07-31T07:08:30;5.97;;;2.33;;
67248;SDS011;63247;54.300;18.592;2023-07-31T07:10:56;6.03;;;2.30;;
67248;SDS011;63247;54.300;18.592;2023-07-31T07:13:21;5.37;;;2.20;;
67248;SDS011;63247;54.300;18.592;2023-07-31T07:15:48;5.57;;;2.27;;
67248;SDS011;63247;54.300;18.592;2023-07-31T07:18:14;9.48;;;2.47;;
67248;SDS011;63247;54.300;18.592;2023-07-31T07:20:39;5.10;;;2.17;;
67248;SDS011;63247;54.300;18.592;2023-07-31T07:23:05;7.38;;;2.60;;
67248;SDS011;63247;54.300;18.592;2023-07-31T07:25:30;6.47;;;2.23;;
67248;SDS011;63247;54.300;18.592;2023-07-31T07:27:56;5.20;;;2.10;;
67248;SDS011;63247;54.300;18.592;2023-07-31T07:30:21;5.30;;;1.80;;
67248;SDS011;63247;54.300;18.592;2023-07-31T07:32:47;6.20;;;2.40;;
67248;SDS011;63247;54.300;18.592;2023-07-31T07:35:13;5.10;;;2.45;;
67248;SDS011;63247;54.300;18.592;2023-07-31T07:37:38;5.57;;;2.23;;
67248;SDS011;63247;54.300;18.592;2023-07-31T07:40:04;6.00;;;2.30;;
67248;SDS011;63247;54.300;18.592;2023-07-31T07:42:30;5.65;;;2.42;;
67248;SDS011;63247;54.300;18.592;2023-07-31T07:44:55;6.93;;;2.37;;
67248;SDS011;63247;54.300;18.592;2023-07-31T07:47:21;4.70;;;2.10;;
67248;SDS011;63247;54.300;18.592;2023-07-31T07:49:47;6.30;;;2.38;;
67248;SDS011;63247;54.300;18.592;2023-07-31T07:52:12;4.50;;;1.50;;
67248;SDS011;63247;54.300;18.592;2023-07-31T07:54:37;11.83;;;2.50;;
67248;SDS011;63247;54.300;18.592;2023-07-31T07:57:03;5.40;;;2.47;;
67248;SDS011;63247;54.300;18.592;2023-07-31T07:59:31;6.13;;;2.30;;
67248;SDS011;63247;54.300;18.592;2023-07-31T08:01:56;5.22;;;2.30;;
67248;SDS011;63247;54.300;18.592;2023-07-31T08:04:22;7.33;;;2.00;;
67248;SDS011;63247;54.300;18.592;2023-07-31T08:06:48;6.97;;;2.63;;
67248;SDS011;63247;54.300;18.592;2023-07-31T08:09:14;4.77;;;2.37;;
67248;SDS011;63247;54.300;18.592;2023-07-31T08:11:39;5.23;;;2.30;;
67248;SDS011;63247;54.300;18.592;2023-07-31T08:14:04;6.03;;;2.30;;
67248;SDS011;63247;54.300;18.592;2023-07-31T08:16:30;4.57;;;2.43;;
67248;SDS011;63247;54.300;18.592;2023-07-31T08:18:55;5.23;;;2.80;;
67248;SDS011;63247;54.300;18.592;2023-07-31T08:21:21;5.57;;;2.23;;
67248;SDS011;63247;54.300;18.592;2023-07-31T08:23:46;4.63;;;2.22;;
67248;SDS011;63247;54.300;18.592;2023-07-31T08:26:15;7.60;;;2.50;;
67248;SDS011;63247;54.300;18.592;2023-07-31T08:28:42;5.28;;;2.20;;
67248;SDS011;63247;54.300;18.592;2023-07-31T08:31:07;5.50;;;2.07;;
67248;SDS011;63247;54.300;18.592;2023-07-31T08:33:33;3.37;;;2.10;;
67248;SDS011;63247;54.300;18.592;2023-07-31T08:35:58;4.10;;;1.90;;
67248;SDS011;63247;54.300;18.592;2023-07-31T08:38:25;6.23;;;2.27;;
67248;SDS011;63247;54.300;18.592;2023-07-31T08:40:51;4.68;;;1.95;;
67248;SDS011;63247;54.300;18.592;2023-07-31T08:43:17;5.28;;;2.30;;
67248;SDS011;63247;54.300;18.592;2023-07-31T08:45:43;4.03;;;2.00;;
67248;SDS011;63247;54.300;18.592;2023-07-31T08:48:09;6.63;;;2.30;;
67248;SDS011;63247;54.300;18.592;2023-07-31T08:50:36;5.40;;;2.00;;
67248;SDS011;63247;54.300;18.592;2023-07-31T08:53:03;4.07;;;1.88;;
67248;SDS011;63247;54.300;18.592;2023-07-31T08:55:28;5.70;;;1.97;;
67248;SDS011;63247;54.300;18.592;2023-07-31T08:57:54;4.07;;;1.58;;
67248;SDS011;63247;54.300;18.592;2023-07-31T09:00:20;5.25;;;1.92;;
67248;SDS011;63247;54.300;18.592;2023-07-31T09:05:14;6.55;;;2.03;;
67248;SDS011;63247;54.300;18.592;2023-07-31T09:07:48;3.20;;;1.83;;
67248;SDS011;63247;54.300;18.592;2023-07-31T09:10:16;5.40;;;1.80;;
67248;SDS011;63247;54.300;18.592;2023-07-31T09:12:41;4.07;;;1.85;;
67248;SDS011;63247;54.300;18.592;2023-07-31T09:15:08;4.47;;;1.88;;
67248;SDS011;63247;54.300;18.592;2023-07-31T09:17:34;7.97;;;1.50;;
67248;SDS011;63247;54.300;18.592;2023-07-31T09:22:42;4.65;;;1.80;;
67248;SDS011;63247;54.300;18.592;2023-07-31T09:25:22;3.35;;;1.75;;
67248;SDS011;63247;54.300;18.592;2023-07-31T09:27:59;4.40;;;1.50;;
67248;SDS011;63247;54.300;18.592;2023-07-31T09:30:27;5.10;;;1.77;;
67248;SDS011;63247;54.300;18.592;2023-07-31T09:33:05;5.20;;;2.00;;
67248;SDS011;63247;54.300;18.592;2023-07-31T09:35:33;5.75;;;1.90;;
67248;SDS011;63247;54.300;18.592;2023-07-31T09:38:00;10.50;;;1.87;;
67248;SDS011;63247;54.300;18.592;2023-07-31T09:40:29;5.78;;;1.90;;
67248;SDS011;63247;54.300;18.592;2023-07-31T09:43:02;4.55;;;1.88;;
67248;SDS011;63247;54.300;18.592;2023-07-31T09:45:29;4.43;;;1.42;;
67248;SDS011;63247;54.300;18.592;2023-07-31T09:47:58;4.10;;;1.63;;
67248;SDS011;63247;54.300;18.592;2023-07-31T09:50:24;5.47;;;1.70;;
67248;SDS011;63247;54.300;18.592;2023-07-31T09:52:50;3.78;;;1.60;;
67248;SDS011;63247;54.300;18.592;2023-07-31T09:55:18;4.80;;;1.50;;
67248;SDS011;63247;54.300;18.592;2023-07-31T09:57:45;5.03;;;1.83;;
67248;SDS011;63247;54.300;18.592;2023-07-31T10:00:13;4.38;;;1.70;;
67248;SDS011;63247;54.300;18.592;2023-07-31T10:02:40;5.07;;;1.77;;
67248;SDS011;63247;54.300;18.592;2023-07-31T10:05:07;5.03;;;1.52;;
67248;SDS011;63247;54.300;18.592;2023-07-31T10:07:39;3.20;;;1.50;;
67248;SDS011;63247;54.300;18.592;2023-07-31T10:10:08;4.28;;;1.70;;
67248;SDS011;63247;54.300;18.592;2023-07-31T10:12:34;4.85;;;1.55;;
67248;SDS011;63247;54.300;18.592;2023-07-31T10:15:01;4.50;;;1.40;;
67248;SDS011;63247;54.300;18.592;2023-07-31T10:17:27;3.88;;;1.50;;
67248;SDS011;63247;54.300;18.592;2023-07-31T10:19:54;3.87;;;1.60;;
67248;SDS011;63247;54.300;18.592;2023-07-31T10:22:22;4.72;;;1.70;;
67248;SDS011;63247;54.300;18.592;2023-07-31T10:24:49;4.63;;;1.42;;
67248;SDS011;63247;54.300;18.592;2023-07-31T10:27:17;6.03;;;1.63;;
67248;SDS011;63247;54.300;18.592;2023-07-31T10:29:43;3.53;;;1.50;;
67248;SDS011;63247;54.300;18.592;2023-07-31T10:32:12;2.83;;;1.40;;
67248;SDS011;63247;54.300;18.592;2023-07-31T10:34:38;5.13;;;1.60;;
67248;SDS011;63247;54.300;18.592;2023-07-31T10:37:21;4.03;;;1.27;;
67248;SDS011;63247;54.300;18.592;2023-07-31T10:39:57;6.28;;;1.70;;
67248;SDS011;63247;54.300;18.592;2023-07-31T10:42:28;3.70;;;1.40;;
67248;SDS011;63247;54.300;18.592;2023-07-31T10:44:57;3.63;;;1.38;;
67248;SDS011;63247;54.300;18.592;2023-07-31T10:47:26;6.90;;;1.50;;
67248;SDS011;63247;54.300;18.592;2023-07-31T10:52:49;5.20;;;1.50;;
67248;SDS011;63247;54.300;18.592;2023-07-31T10:58:06;3.55;;;1.50;;
67248;SDS011;63247;54.300;18.592;2023-07-31T11:00:36;6.43;;;1.70;;
67248;SDS011;63247;54.300;18.592;2023-07-31T11:03:07;3.93;;;1.50;;
67248;SDS011;63247;54.300;18.592;2023-07-31T11:08:29;3.13;;;1.20;;
67248;SDS011;63247;54.300;18.592;2023-07-31T11:11:06;5.65;;;1.60;;
67248;SDS011;63247;54.300;18.592;2023-07-31T11:13:43;4.78;;;1.50;;
67248;SDS011;63247;54.300;18.592;2023-07-31T11:16:19;4.75;;;1.50;;
67248;SDS011;63247;54.300;18.592;2023-07-31T11:18:47;4.38;;;1.63;;
67248;SDS011;63247;54.300;18.592;2023-07-31T11:21:17;4.35;;;1.85;;
67248;SDS011;63247;54.300;18.592;2023-07-31T11:23:51;4.45;;;1.90;;
67248;SDS011;63247;54.300;18.592;2023-07-31T11:26:25;6.07;;;1.95;;
67248;SDS011;63247;54.300;18.592;2023-07-31T11:28:52;3.83;;;1.50;;
67248;SDS011;63247;54.300;18.592;2023-07-31T11:31:18;4.30;;;1.65;;
67248;SDS011;63247;54.300;18.592;2023-07-31T11:33:44;4.77;;;1.60;;
67248;SDS011;63247;54.300;18.592;2023-07-31T11:36:19;4.55;;;1.77;;
67248;SDS011;63247;54.300;18.592;2023-07-31T11:38:45;7.30;;;1.95;;
67248;SDS011;63247;54.300;18.592;2023-07-31T11:41:13;4.90;;;1.83;;
67248;SDS011;63247;54.300;18.592;2023-07-31T11:43:39;4.82;;;1.70;;
67248;SDS011;63247;54.300;18.592;2023-07-31T11:46:04;5.47;;;1.70;;
67248;SDS011;63247;54.300;18.592;2023-07-31T11:48:35;6.18;;;1.60;;
67248;SDS011;63247;54.300;18.592;2023-07-31T11:51:06;6.30;;;2.00;;
67248;SDS011;63247;54.300;18.592;2023-07-31T11:56:05;4.40;;;1.88;;
67248;SDS011;63247;54.300;18.592;2023-07-31T11:58:34;5.87;;;1.70;;
67248;SDS011;63247;54.300;18.592;2023-07-31T12:01:00;6.70;;;1.80;;
67248;SDS011;63247;54.300;18.592;2023-07-31T12:03:27;7.80;;;2.03;;
67248;SDS011;63247;54.300;18.592;2023-07-31T12:05:53;5.55;;;1.80;;
67248;SDS011;63247;54.300;18.592;2023-07-31T12:08:22;7.38;;;1.80;;
67248;SDS011;63247;54.300;18.592;2023-07-31T12:10:52;6.00;;;1.77;;
67248;SDS011;63247;54.300;18.592;2023-07-31T12:13:22;7.75;;;1.90;;
67248;SDS011;63247;54.300;18.592;2023-07-31T12:15:53;6.13;;;1.85;;
67248;SDS011;63247;54.300;18.592;2023-07-31T12:18:24;4.15;;;1.80;;
67248;SDS011;63247;54.300;18.592;2023-07-31T12:20:55;4.18;;;1.60;;
67248;SDS011;63247;54.300;18.592;2023-07-31T12:23:25;6.72;;;2.00;;
67248;SDS011;63247;54.300;18.592;2023-07-31T12:26:00;6.32;;;1.88;;
67248;SDS011;63247;54.300;18.592;2023-07-31T12:28:29;8.05;;;1.90;;
67248;SDS011;63247;54.300;18.592;2023-07-31T12:30:58;4.38;;;1.80;;
67248;SDS011;63247;54.300;18.592;2023-07-31T12:33:30;4.13;;;2.00;;
67248;SDS011;63247;54.300;18.592;2023-07-31T12:36:00;7.72;;;2.20;;
67248;SDS011;63247;54.300;18.592;2023-07-31T12:38:26;5.32;;;2.00;;
67248;SDS011;63247;54.300;18.592;2023-07-31T12:40:52;6.83;;;2.20;;
67248;SDS011;63247;54.300;18.592;2023-07-31T12:43:17;4.50;;;1.87;;
67248;SDS011;63247;54.300;18.592;2023-07-31T12:45:43;5.45;;;2.10;;
67248;SDS011;63247;54.300;18.592;2023-07-31T12:48:08;6.40;;;2.00;;
67248;SDS011;63247;54.300;18.592;2023-07-31T12:50:34;9.53;;;2.40;;
67248;SDS011;63247;54.300;18.592;2023-07-31T12:53:01;8.07;;;1.90;;
67248;SDS011;63247;54.300;18.592;2023-07-31T12:55:28;10.00;;;2.30;;
67248;SDS011;63247;54.300;18.592;2023-07-31T12:57:53;6.27;;;2.20;;
67248;SDS011;63247;54.300;18.592;2023-07-31T13:00:19;5.90;;;2.20;;
67248;SDS011;63247;54.300;18.592;2023-07-31T13:02:44;4.93;;;1.60;;
67248;SDS011;63247;54.300;18.592;2023-07-31T13:05:10;6.30;;;2.17;;
67248;SDS011;63247;54.300;18.592;2023-07-31T13:07:35;8.27;;;2.20;;
67248;SDS011;63247;54.300;18.592;2023-07-31T13:10:01;5.90;;;2.00;;
67248;SDS011;63247;54.300;18.592;2023-07-31T13:12:27;5.87;;;2.27;;
67248;SDS011;63247;54.300;18.592;2023-07-31T13:14:52;5.53;;;1.90;;
67248;SDS011;63247;54.300;18.592;2023-07-31T13:17:18;7.25;;;2.10;;
67248;SDS011;63247;54.300;18.592;2023-07-31T13:19:43;5.97;;;2.00;;
67248;SDS011;63247;54.300;18.592;2023-07-31T13:22:09;5.47;;;2.00;;
67248;SDS011;63247;54.300;18.592;2023-07-31T13:24:34;7.10;;;2.22;;
67248;SDS011;63247;54.300;18.592;2023-07-31T13:26:59;4.77;;;2.07;;
67248;SDS011;63247;54.300;18.592;2023-07-31T13:29:25;4.00;;;2.10;;
67248;SDS011;63247;54.300;18.592;2023-07-31T13:31:51;7.73;;;2.27;;
67248;SDS011;63247;54.300;18.592;2023-07-31T13:34:17;5.35;;;2.20;;
67248;SDS011;63247;54.300;18.592;2023-07-31T13:36:43;10.10;;;2.30;;
67248;SDS011;63247;54.300;18.592;2023-07-31T13:39:08;5.38;;;2.20;;
67248;SDS011;63247;54.300;18.592;2023-07-31T13:41:34;8.07;;;2.10;;
67248;SDS011;63247;54.300;18.592;2023-07-31T13:43:59;6.20;;;2.00;;
67248;SDS011;63247;54.300;18.592;2023-07-31T13:46:24;6.93;;;2.27;;
67248;SDS011;63247;54.300;18.592;2023-07-31T13:48:50;5.85;;;2.10;;
67248;SDS011;63247;54.300;18.592;2023-07-31T13:51:19;10.68;;;2.67;;
67248;SDS011;63247;54.300;18.592;2023-07-31T13:53:45;6.47;;;2.20;;
67248;SDS011;63247;54.300;18.592;2023-07-31T13:56:10;7.67;;;2.10;;
67248;SDS011;63247;54.300;18.592;2023-07-31T13:58:36;5.07;;;2.00;;
67248;SDS011;63247;54.300;18.592;2023-07-31T14:01:03;6.45;;;1.90;;
67248;SDS011;63247;54.300;18.592;2023-07-31T14:03:29;4.53;;;2.00;;
67248;SDS011;63247;54.300;18.592;2023-07-31T14:05:55;5.32;;;2.05;;
67248;SDS011;63247;54.300;18.592;2023-07-31T14:08:21;4.45;;;1.60;;
67248;SDS011;63247;54.300;18.592;2023-07-31T14:10:46;3.60;;;1.20;;
67248;SDS011;63247;54.300;18.592;2023-07-31T14:13:12;4.53;;;1.40;;
67248;SDS011;63247;54.300;18.592;2023-07-31T14:15:38;3.37;;;1.10;;
67248;SDS011;63247;54.300;18.592;2023-07-31T14:18:04;2.95;;;1.30;;
67248;SDS011;63247;54.300;18.592;2023-07-31T14:20:30;3.53;;;1.60;;
67248;SDS011;63247;54.300;18.592;2023-07-31T14:22:55;3.72;;;1.60;;
67248;SDS011;63247;54.300;18.592;2023-07-31T14:25:21;4.10;;;1.60;;
67248;SDS011;63247;54.300;18.592;2023-07-31T14:27:49;4.50;;;1.90;;
67248;SDS011;63247;54.300;18.592;2023-07-31T14:30:14;4.68;;;1.60;;
67248;SDS011;63247;54.300;18.592;2023-07-31T14:32:40;7.93;;;1.83;;
67248;SDS011;63247;54.300;18.592;2023-07-31T14:35:06;3.83;;;1.70;;
67248;SDS011;63247;54.300;18.592;2023-07-31T14:37:41;7.43;;;1.70;;
67248;SDS011;63247;54.300;18.592;2023-07-31T14:40:08;5.07;;;1.77;;
67248;SDS011;63247;54.300;18.592;2023-07-31T14:42:35;5.00;;;1.90;;
67248;SDS011;63247;54.300;18.592;2023-07-31T14:45:02;3.80;;;1.38;;
67248;SDS011;63247;54.300;18.592;2023-07-31T14:47:31;5.70;;;1.70;;
67248;SDS011;63247;54.300;18.592;2023-07-31T14:49:58;4.23;;;1.50;;
67248;SDS011;63247;54.300;18.592;2023-07-31T14:52:25;4.88;;;1.50;;
67248;SDS011;63247;54.300;18.592;2023-07-31T14:54:51;3.45;;;1.30;;